Time;durP1;ratioP1;P1;durP2;ratioP2;P2;SDS_P1;SDS_P2;PMS_P1;PMS_P2;Temp;Humidity;BMP_temperature;BMP_pressure;BME280_temperature;BME280_humidity;BME280_pressure;Samples;Min_cycle;Max_cycle;Signal;HPM_P1;HPM_P2
2021/09/22 00:02:20;;;;;;;6.00;4.60;;;;;;;;;;5032282;28;20421;-78
2021/09/22 00:04:45;;;;;;;8.97;5.93;;;;;;;;;;5014813;28;21000;-78
2021/09/22 00:07:11;;;;;;;9.33;4.93;;;;;;;;;;5032542;28;20497;-78
2021/09/22 00:09:37;;;;;;;8.40;5.23;;;;;;;;;;5032379;28;20914;-77
2021/09/22 00:12:04;;;;;;;8.03;5.10;;;;;;;;;;5032146;28;20865;-77
2021/09/22 00:14:30;;;;;;;9.60;5.30;;;;;;;;;;5032469;28;20504;-77
2021/09/22 00:16:56;;;;;;;5.80;4.37;;;;;;;;;;5032533;28;20282;-77
2021/09/22 00:19:21;;;;;;;6.73;4.60;;;;;;;;;;5034396;28;20923;-78
2021/09/22 00:21:47;;;;;;;9.20;5.40;;;;;;;;;;5035818;28;20432;-77
2021/09/22 00:24:13;;;;;;;7.93;5.20;;;;;;;;;;5018629;28;20428;-77
2021/09/22 00:26:39;;;;;;;6.07;4.77;;;;;;;;;;5036175;28;20166;-77
2021/09/22 00:29:05;;;;;;;7.80;4.80;;;;;;;;;;5036101;28;20463;-77
2021/09/22 00:31:35;;;;;;;7.43;4.33;;;;;;;;;;5035489;28;20844;-77
2021/09/22 00:34:01;;;;;;;6.03;5.40;;;;;;;;;;5035916;28;20459;-78
2021/09/22 00:36:27;;;;;;;6.38;5.22;;;;;;;;;;5035914;28;20174;-77
2021/09/22 00:38:53;;;;;;;6.93;5.03;;;;;;;;;;5035667;28;20327;-78
2021/09/22 00:41:19;;;;;;;5.80;4.63;;;;;;;;;;5035668;28;20451;-79
2021/09/22 00:43:45;;;;;;;7.20;4.80;;;;;;;;;;5035632;28;20421;-78
2021/09/22 00:46:11;;;;;;;8.52;5.47;;;;;;;;;;5035835;28;20758;-78
2021/09/22 00:48:37;;;;;;;6.30;4.60;;;;;;;;;;5035691;28;20178;-78
2021/09/22 00:51:04;;;;;;;5.65;4.55;;;;;;;;;;5035244;28;20413;-79
2021/09/22 00:53:30;;;;;;;6.28;5.32;;;;;;;;;;5017618;28;20687;-78
2021/09/22 00:55:57;;;;;;;10.88;5.97;;;;;;;;;;5035587;28;20205;-78
2021/09/22 00:58:23;;;;;;;6.88;5.60;;;;;;;;;;5035389;28;20625;-78
2021/09/22 01:00:49;;;;;;;6.70;5.35;;;;;;;;;;5035554;28;20185;-77
2021/09/22 01:03:15;;;;;;;6.75;5.45;;;;;;;;;;5034982;28;20197;-77
2021/09/22 01:05:41;;;;;;;7.50;5.82;;;;;;;;;;5035391;28;20181;-78
2021/09/22 01:08:10;;;;;;;5.80;4.90;;;;;;;;;;5035565;28;20185;-78
2021/09/22 01:10:36;;;;;;;7.65;5.47;;;;;;;;;;5035408;28;20413;-77
2021/09/22 01:13:02;;;;;;;9.10;5.93;;;;;;;;;;5034979;28;20198;-77
2021/09/22 01:15:37;;;;;;;10.20;6.20;;;;;;;;;;5017593;28;20186;-77
2021/09/22 01:18:04;;;;;;;9.90;6.47;;;;;;;;;;5034919;28;20509;-77
2021/09/22 01:20:31;;;;;;;8.60;6.78;;;;;;;;;;5035126;28;20178;-77
2021/09/22 01:22:59;;;;;;;9.38;6.30;;;;;;;;;;5034428;28;20364;-77
2021/09/22 01:25:25;;;;;;;10.68;6.95;;;;;;;;;;5034958;28;20182;-77
2021/09/22 01:27:53;;;;;;;11.02;7.00;;;;;;;;;;5034903;28;20198;-78
2021/09/22 01:30:19;;;;;;;11.32;6.75;;;;;;;;;;5034197;28;20252;-77
2021/09/22 01:32:49;;;;;;;11.50;7.00;;;;;;;;;;5034540;28;20202;-77
2021/09/22 01:35:15;;;;;;;13.35;6.80;;;;;;;;;;5035003;28;20210;-77
2021/09/22 01:37:41;;;;;;;11.60;7.10;;;;;;;;;;5034844;28;20245;-77
2021/09/22 01:40:07;;;;;;;9.18;6.95;;;;;;;;;;5034645;28;20268;-78
2021/09/22 01:42:33;;;;;;;9.73;7.70;;;;;;;;;;5034294;28;20667;-77
2021/09/22 01:45:03;;;;;;;12.73;6.80;;;;;;;;;;5034809;28;20551;-77
2021/09/22 01:47:29;;;;;;;8.95;7.07;;;;;;;;;;5016871;28;20186;-77
2021/09/22 01:50:03;;;;;;;12.75;8.00;;;;;;;;;;5034289;28;20201;-76
2021/09/22 01:52:31;;;;;;;10.77;7.75;;;;;;;;;;5033969;28;20309;-77
2021/09/22 01:54:57;;;;;;;10.02;7.32;;;;;;;;;;5034397;28;20717;-77
2021/09/22 01:57:23;;;;;;;9.60;6.63;;;;;;;;;;5034236;28;20212;-77
2021/09/22 01:59:50;;;;;;;10.93;7.40;;;;;;;;;;5034348;28;20432;-77
2021/09/22 02:02:16;;;;;;;9.20;7.53;;;;;;;;;;5033781;28;20197;-77
2021/09/22 02:04:42;;;;;;;11.00;7.55;;;;;;;;;;5034112;28;20174;-77
2021/09/22 02:07:09;;;;;;;13.17;7.60;;;;;;;;;;5034214;28;20213;-77
2021/09/22 02:09:35;;;;;;;10.07;8.10;;;;;;;;;;5034299;28;20424;-77
2021/09/22 02:12:01;;;;;;;9.20;7.45;;;;;;;;;;5033847;28;20197;-77
2021/09/22 02:14:27;;;;;;;12.80;8.45;;;;;;;;;;5033946;28;20260;-77
2021/09/22 02:16:53;;;;;;;9.00;7.90;;;;;;;;;;5034083;28;20650;-77
2021/09/22 02:19:20;;;;;;;12.95;9.15;;;;;;;;;;5034195;28;20178;-77
2021/09/22 02:21:46;;;;;;;12.75;7.90;;;;;;;;;;5033501;28;20201;-77
2021/09/22 02:24:12;;;;;;;10.63;7.77;;;;;;;;;;5034013;28;20192;-77
2021/09/22 02:26:38;;;;;;;9.95;7.60;;;;;;;;;;5033857;28;20760;-77
2021/09/22 02:29:04;;;;;;;12.90;8.75;;;;;;;;;;5033868;28;20626;-77
2021/09/22 02:31:30;;;;;;;12.07;8.47;;;;;;;;;;5015791;28;20229;-77
2021/09/22 02:33:56;;;;;;;13.07;7.30;;;;;;;;;;5033783;28;20496;-77
2021/09/22 02:36:22;;;;;;;10.00;8.00;;;;;;;;;;5033581;28;20702;-77
2021/09/22 02:38:48;;;;;;;11.27;7.70;;;;;;;;;;5033449;28;20564;-77
2021/09/22 02:41:14;;;;;;;15.15;8.82;;;;;;;;;;5033133;28;20210;-76
2021/09/22 02:43:40;;;;;;;9.87;7.83;;;;;;;;;;5033532;28;20237;-77
2021/09/22 02:46:06;;;;;;;14.33;8.13;;;;;;;;;;5033499;28;20405;-78
2021/09/22 02:48:32;;;;;;;11.32;7.80;;;;;;;;;;5033572;28;20423;-77
2021/09/22 02:50:58;;;;;;;10.30;8.20;;;;;;;;;;5033334;28;20603;-78
2021/09/22 02:53:24;;;;;;;12.93;8.43;;;;;;;;;;5033302;28;20226;-77
2021/09/22 02:55:50;;;;;;;12.82;8.82;;;;;;;;;;5033430;28;20420;-77
2021/09/22 02:58:16;;;;;;;10.80;8.93;;;;;;;;;;5033257;28;20245;-77
2021/09/22 03:00:42;;;;;;;10.07;8.40;;;;;;;;;;5033092;28;20189;-78
2021/09/22 03:03:08;;;;;;;11.10;8.75;;;;;;;;;;5032811;28;20615;-76
2021/09/22 03:05:34;;;;;;;13.15;9.23;;;;;;;;;;5033345;28;20647;-77
2021/09/22 03:08:00;;;;;;;11.68;8.32;;;;;;;;;;5015399;28;20197;-78
2021/09/22 03:10:26;;;;;;;14.00;8.77;;;;;;;;;;5033176;28;20265;-77
2021/09/22 03:12:53;;;;;;;10.85;8.15;;;;;;;;;;5032564;28;20467;-77
2021/09/22 03:15:19;;;;;;;12.25;8.38;;;;;;;;;;5015463;28;20685;-77
2021/09/22 03:17:46;;;;;;;11.95;8.93;;;;;;;;;;5033204;28;20210;-77
2021/09/22 03:20:12;;;;;;;15.80;8.95;;;;;;;;;;5033455;28;20273;-77
2021/09/22 03:22:38;;;;;;;14.80;7.63;;;;;;;;;;5032771;28;20240;-77
2021/09/22 03:25:05;;;;;;;12.75;9.18;;;;;;;;;;5033386;28;20185;-77
2021/09/22 03:27:31;;;;;;;11.27;8.55;;;;;;;;;;5032891;28;20175;-77
2021/09/22 03:29:57;;;;;;;12.70;9.30;;;;;;;;;;5032933;28;20188;-77
2021/09/22 03:32:23;;;;;;;17.50;10.10;;;;;;;;;;5032679;28;20444;-78
2021/09/22 03:34:49;;;;;;;10.98;8.07;;;;;;;;;;5033167;28;20404;-77
2021/09/22 03:37:15;;;;;;;12.13;9.23;;;;;;;;;;5032970;28;20208;-77
2021/09/22 03:39:41;;;;;;;13.07;9.10;;;;;;;;;;5033097;28;20174;-77
2021/09/22 03:42:07;;;;;;;9.93;8.33;;;;;;;;;;5032700;28;20421;-77
2021/09/22 03:44:33;;;;;;;12.90;9.07;;;;;;;;;;5032832;28;20405;-77
2021/09/22 03:46:59;;;;;;;10.40;8.50;;;;;;;;;;5032739;28;20181;-78
2021/09/22 03:49:25;;;;;;;13.43;9.53;;;;;;;;;;5032855;28;20459;-76
2021/09/22 03:51:51;;;;;;;16.97;9.97;;;;;;;;;;5032494;28;20473;-77
2021/09/22 03:54:17;;;;;;;15.75;9.18;;;;;;;;;;5034615;28;20413;-77
2021/09/22 03:56:43;;;;;;;11.13;9.10;;;;;;;;;;5036556;28;20604;-77
2021/09/22 03:59:09;;;;;;;12.35;9.32;;;;;;;;;;5036479;28;20166;-77
2021/09/22 04:01:35;;;;;;;12.07;8.93;;;;;;;;;;5036271;28;20198;-77
2021/09/22 04:04:01;;;;;;;15.27;10.17;;;;;;;;;;5036428;28;20182;-77
2021/09/22 04:06:27;;;;;;;13.83;9.77;;;;;;;;;;5036482;28;20932;-77
2021/09/22 04:08:53;;;;;;;15.40;10.30;;;;;;;;;;5036414;28;20416;-78
2021/09/22 04:11:19;;;;;;;13.20;9.73;;;;;;;;;;5018404;28;20507;-77
2021/09/22 04:13:45;;;;;;;12.73;9.43;;;;;;;;;;5036534;28;20769;-77
2021/09/22 04:16:11;;;;;;;13.13;8.27;;;;;;;;;;5036395;28;20174;-77
2021/09/22 04:18:38;;;;;;;14.68;10.20;;;;;;;;;;5036249;28;20556;-77
2021/09/22 04:21:04;;;;;;;12.77;10.55;;;;;;;;;;5035859;28;20178;-78
2021/09/22 04:23:30;;;;;;;11.75;8.95;;;;;;;;;;5017963;28;20667;-77
2021/09/22 04:25:56;;;;;;;14.38;9.30;;;;;;;;;;5036146;28;20178;-77
2021/09/22 04:28:22;;;;;;;12.85;9.38;;;;;;;;;;5035993;28;20181;-77
2021/09/22 04:30:49;;;;;;;12.90;9.30;;;;;;;;;;5036237;28;20170;-77
2021/09/22 04:33:15;;;;;;;14.15;10.45;;;;;;;;;;5035429;28;20611;-77
2021/09/22 04:35:41;;;;;;;14.68;9.20;;;;;;;;;;5035916;28;20178;-77
2021/09/22 04:38:07;;;;;;;13.90;9.60;;;;;;;;;;5035924;28;20324;-77
2021/09/22 04:40:34;;;;;;;14.65;10.45;;;;;;;;;;5035750;28;20409;-77
2021/09/22 04:43:00;;;;;;;11.95;10.35;;;;;;;;;;5035359;28;20279;-77
2021/09/22 04:45:27;;;;;;;14.35;10.32;;;;;;;;;;5035952;28;20657;-77
2021/09/22 04:47:57;;;;;;;11.20;8.30;;;;;;;;;;5035721;28;20686;-77
2021/09/22 04:50:23;;;;;;;14.50;9.55;;;;;;;;;;5035774;28;20200;-77
2021/09/22 04:52:50;;;;;;;16.20;10.10;;;;;;;;;;5035301;28;20285;-77
2021/09/22 04:55:16;;;;;;;13.27;9.13;;;;;;;;;;5035476;28;20651;-77
2021/09/22 04:57:42;;;;;;;13.88;9.63;;;;;;;;;;5035351;28;20201;-78
2021/09/22 05:00:09;;;;;;;12.68;9.70;;;;;;;;;;5035493;28;20190;-77
2021/09/22 05:02:35;;;;;;;13.10;10.13;;;;;;;;;;5034902;28;20256;-77
2021/09/22 05:05:01;;;;;;;13.68;10.40;;;;;;;;;;5035324;28;20204;-77
2021/09/22 05:07:27;;;;;;;16.02;10.50;;;;;;;;;;5035262;28;20174;-77
2021/09/22 05:09:53;;;;;;;15.07;10.20;;;;;;;;;;5035132;28;20197;-77
2021/09/22 05:12:19;;;;;;;13.30;10.17;;;;;;;;;;5017143;28;20444;-77
2021/09/22 05:14:45;;;;;;;12.88;9.32;;;;;;;;;;5017388;28;20424;-77
2021/09/22 05:17:11;;;;;;;16.80;10.47;;;;;;;;;;5035404;28;20546;-77
2021/09/22 05:19:38;;;;;;;20.85;11.00;;;;;;;;;;5029353;28;20459;-77
2021/09/22 05:22:04;;;;;;;16.02;11.32;;;;;;;;;;5029029;28;20194;-78
2021/09/22 05:24:30;;;;;;;17.42;10.68;;;;;;;;;;5035076;28;20192;-78
2021/09/22 05:26:56;;;;;;;16.42;12.25;;;;;;;;;;5035092;28;20267;-77
2021/09/22 05:29:22;;;;;;;17.13;11.63;;;;;;;;;;5035037;28;20210;-78
2021/09/22 05:31:48;;;;;;;13.57;10.27;;;;;;;;;;5034483;28;20429;-77
2021/09/22 05:34:14;;;;;;;18.15;11.23;;;;;;;;;;5034719;28;20936;-77
2021/09/22 05:36:41;;;;;;;15.73;11.70;;;;;;;;;;5034749;28;20511;-77
2021/09/22 05:39:07;;;;;;;15.45;10.48;;;;;;;;;;5034806;28;20174;-77
2021/09/22 05:41:33;;;;;;;18.33;11.17;;;;;;;;;;5034367;28;20190;-77
2021/09/22 05:43:59;;;;;;;15.77;11.85;;;;;;;;;;5034429;28;20433;-77
2021/09/22 05:46:25;;;;;;;16.90;11.25;;;;;;;;;;5034825;28;20185;-77
2021/09/22 05:48:51;;;;;;;18.20;10.23;;;;;;;;;;5017046;28;20186;-77
2021/09/22 05:51:17;;;;;;;15.47;11.60;;;;;;;;;;5016766;28;20421;-78
2021/09/22 05:53:44;;;;;;;16.80;11.82;;;;;;;;;;5034623;28;20405;-78
2021/09/22 05:56:10;;;;;;;18.05;11.85;;;;;;;;;;5034140;28;20197;-77
2021/09/22 05:58:36;;;;;;;17.65;10.95;;;;;;;;;;5034407;28;20256;-77
2021/09/22 06:01:02;;;;;;;16.20;11.47;;;;;;;;;;5034264;28;20170;-77
2021/09/22 06:03:28;;;;;;;19.27;10.90;;;;;;;;;;5034261;28;20417;-77
2021/09/22 06:05:55;;;;;;;21.45;13.43;;;;;;;;;;5034075;28;20182;-78
2021/09/22 06:08:21;;;;;;;16.48;12.40;;;;;;;;;;5034489;28;20303;-78
2021/09/22 06:10:47;;;;;;;17.35;11.75;;;;;;;;;;5034159;28;20190;-77
2021/09/22 06:13:13;;;;;;;18.67;12.70;;;;;;;;;;5033855;28;20236;-78
2021/09/22 06:15:40;;;;;;;18.52;12.25;;;;;;;;;;5034202;28;20200;-77
2021/09/22 06:18:06;;;;;;;17.70;12.27;;;;;;;;;;5033620;28;20206;-78
2021/09/22 06:20:32;;;;;;;18.05;13.88;;;;;;;;;;5033961;28;20178;-77
2021/09/22 06:22:58;;;;;;;16.48;11.48;;;;;;;;;;5033424;28;20271;-78
2021/09/22 06:25:24;;;;;;;24.30;12.70;;;;;;;;;;5033839;28;20178;-78
2021/09/22 06:27:50;;;;;;;18.07;11.93;;;;;;;;;;5033681;28;20574;-78
2021/09/22 06:30:16;;;;;;;21.83;12.50;;;;;;;;;;5033879;28;20404;-78
2021/09/22 06:32:42;;;;;;;19.00;12.98;;;;;;;;;;5015636;28;20264;-78
2021/09/22 06:35:09;;;;;;;20.98;13.15;;;;;;;;;;5033953;28;20206;-77
2021/09/22 06:37:35;;;;;;;24.38;15.43;;;;;;;;;;5033608;28;20210;-77
2021/09/22 06:40:01;;;;;;;24.05;14.77;;;;;;;;;;5033617;28;20183;-77
2021/09/22 06:42:27;;;;;;;24.92;14.73;;;;;;;;;;5033080;28;20202;-78
2021/09/22 06:44:53;;;;;;;21.75;15.25;;;;;;;;;;5016187;28;20170;-77
2021/09/22 06:47:19;;;;;;;24.80;15.70;;;;;;;;;;5015881;28;20602;-77
2021/09/22 06:49:45;;;;;;;26.73;16.50;;;;;;;;;;5033534;28;20448;-77
2021/09/22 06:52:11;;;;;;;21.20;15.00;;;;;;;;;;5015180;28;20292;-77
2021/09/22 06:54:37;;;;;;;21.03;14.30;;;;;;;;;;5033381;28;20762;-77
2021/09/22 06:57:03;;;;;;;24.42;14.40;;;;;;;;;;5033406;28;20464;-77
2021/09/22 06:59:29;;;;;;;26.45;14.48;;;;;;;;;;5033372;28;20178;-77
2021/09/22 07:01:55;;;;;;;19.83;14.07;;;;;;;;;;5033046;28;20746;-77
2021/09/22 07:04:21;;;;;;;16.38;12.45;;;;;;;;;;5033145;28;20261;-78
2021/09/22 07:06:47;;;;;;;23.13;15.88;;;;;;;;;;5033248;28;20178;-77
2021/09/22 07:09:14;;;;;;;22.77;14.95;;;;;;;;;;5033304;28;20190;-77
2021/09/22 07:11:40;;;;;;;22.30;14.65;;;;;;;;;;5032950;28;20533;-78
2021/09/22 07:14:06;;;;;;;19.80;13.38;;;;;;;;;;5033169;28;20189;-77
2021/09/22 07:16:32;;;;;;;17.05;13.25;;;;;;;;;;5015330;28;20186;-77
2021/09/22 07:18:58;;;;;;;17.85;12.30;;;;;;;;;;5032919;28;20197;-77
2021/09/22 07:21:24;;;;;;;21.75;13.70;;;;;;;;;;5032840;28;20174;-77
2021/09/22 07:23:50;;;;;;;23.15;13.05;;;;;;;;;;5033112;28;20274;-77
2021/09/22 07:26:17;;;;;;;20.70;12.90;;;;;;;;;;5033139;28;20253;-77
2021/09/22 07:28:43;;;;;;;17.23;12.55;;;;;;;;;;5034059;28;20831;-77
2021/09/22 07:31:10;;;;;;;17.67;12.90;;;;;;;;;;5036838;28;20252;-78
2021/09/22 07:33:36;;;;;;;17.05;12.98;;;;;;;;;;5037254;28;20456;-77
2021/09/22 07:36:03;;;;;;;16.85;12.52;;;;;;;;;;5037086;28;20169;-77
2021/09/22 07:38:30;;;;;;;15.73;12.02;;;;;;;;;;5019450;28;20222;-77
2021/09/22 07:40:56;;;;;;;16.50;11.80;;;;;;;;;;5036800;28;20170;-77
2021/09/22 07:43:22;;;;;;;15.67;12.37;;;;;;;;;;5036742;28;20897;-78
2021/09/22 07:45:49;;;;;;;20.23;12.53;;;;;;;;;;5037225;28;20405;-78
2021/09/22 07:48:15;;;;;;;18.70;11.87;;;;;;;;;;5036934;28;20492;-77
2021/09/22 07:50:41;;;;;;;17.70;11.13;;;;;;;;;;5036734;28;20408;-77
2021/09/22 07:53:07;;;;;;;16.27;12.47;;;;;;;;;;5018722;28;20446;-77
2021/09/22 07:55:33;;;;;;;16.30;11.97;;;;;;;;;;5036814;28;20499;-77
2021/09/22 07:57:59;;;;;;;15.63;12.27;;;;;;;;;;5036750;28;20459;-78
2021/09/22 08:00:25;;;;;;;12.50;11.03;;;;;;;;;;5036687;28;20397;-77
2021/09/22 08:02:53;;;;;;;17.43;11.37;;;;;;;;;;5036129;28;20428;-78
2021/09/22 08:05:19;;;;;;;18.83;13.33;;;;;;;;;;5036577;28;20496;-78
2021/09/22 08:07:46;;;;;;;15.67;11.40;;;;;;;;;;5036656;28;20408;-78
2021/09/22 08:10:12;;;;;;;15.60;11.57;;;;;;;;;;5036395;28;20505;-77
2021/09/22 08:12:38;;;;;;;16.57;13.10;;;;;;;;;;5036054;28;20432;-78
2021/09/22 08:15:05;;;;;;;21.00;12.80;;;;;;;;;;5036204;28;20424;-78
2021/09/22 08:17:31;;;;;;;13.90;11.63;;;;;;;;;;5036143;28;20612;-77
2021/09/22 08:19:57;;;;;;;16.90;12.23;;;;;;;;;;5036412;28;20404;-78
2021/09/22 08:22:23;;;;;;;17.23;12.70;;;;;;;;;;5018022;28;20973;-78
2021/09/22 08:24:49;;;;;;;15.70;12.53;;;;;;;;;;5036126;28;20409;-77
2021/09/22 08:27:15;;;;;;;21.20;11.03;;;;;;;;;;5035936;28;20412;-78
2021/09/22 08:29:42;;;;;;;18.17;12.33;;;;;;;;;;5018614;28;20412;-78
2021/09/22 08:32:08;;;;;;;14.83;11.47;;;;;;;;;;5035840;28;20839;-77
2021/09/22 08:34:34;;;;;;;18.17;11.87;;;;;;;;;;5018300;28;20420;-78
2021/09/22 08:37:00;;;;;;;17.20;13.33;;;;;;;;;;5035834;28;20418;-78
2021/09/22 08:39:32;;;;;;;18.00;12.73;;;;;;;;;;5018010;28;20401;-77
2021/09/22 08:41:58;;;;;;;14.93;12.60;;;;;;;;;;5035765;28;20456;-78
2021/09/22 08:44:24;;;;;;;17.80;11.60;;;;;;;;;;5018487;28;20409;-77
2021/09/22 08:46:51;;;;;;;16.73;11.40;;;;;;;;;;5018057;28;20403;-78
2021/09/22 08:49:17;;;;;;;15.10;12.30;;;;;;;;;;5035735;28;20405;-78
2021/09/22 08:51:43;;;;;;;16.97;10.87;;;;;;;;;;5035327;28;20838;-78
2021/09/22 08:54:09;;;;;;;15.10;10.80;;;;;;;;;;5035697;28;20413;-77
2021/09/22 08:56:39;;;;;;;20.73;12.00;;;;;;;;;;5035698;28;20536;-77
2021/09/22 08:59:06;;;;;;;18.63;11.63;;;;;;;;;;5035316;28;20464;-79
2021/09/22 09:01:32;;;;;;;15.10;11.40;;;;;;;;;;5035025;28;20433;-78
2021/09/22 09:03:58;;;;;;;13.33;10.67;;;;;;;;;;5035411;28;20380;-78
2021/09/22 09:06:33;;;;;;;13.80;10.00;;;;;;;;;;5035339;28;20423;-77
2021/09/22 09:09:00;;;;;;;19.40;11.20;;;;;;;;;;5035275;28;20421;-78
2021/09/22 09:11:34;;;;;;;15.73;11.40;;;;;;;;;;5034877;28;20434;-78
2021/09/22 09:14:02;;;;;;;13.70;11.70;;;;;;;;;;5035215;28;20418;-78
2021/09/22 09:16:37;;;;;;;12.87;11.17;;;;;;;;;;5035304;28;20383;-78
2021/09/22 09:19:09;;;;;;;17.17;12.47;;;;;;;;;;5035209;28;20442;-78
2021/09/22 09:21:52;;;;;;;15.40;11.70;;;;;;;;;;5034815;28;20455;-79
2021/09/22 09:24:28;;;;;;;14.23;10.83;;;;;;;;;;5034922;28;20459;-78
2021/09/22 09:26:54;;;;;;;16.13;11.00;;;;;;;;;;5017454;28;20503;-78
2021/09/22 09:29:20;;;;;;;14.40;11.07;;;;;;;;;;5017538;28;20848;-78
2021/09/22 09:31:46;;;;;;;16.20;10.53;;;;;;;;;;5034396;28;20441;-78
2021/09/22 09:34:12;;;;;;;16.50;11.77;;;;;;;;;;5017142;28;20872;-78
2021/09/22 09:36:50;;;;;;;14.73;12.00;;;;;;;;;;5034794;28;20413;-78
2021/09/22 09:39:23;;;;;;;15.27;12.50;;;;;;;;;;5034670;28;20439;-78
2021/09/22 09:41:54;;;;;;;12.03;10.60;;;;;;;;;;5034395;28;20804;-78
2021/09/22 09:44:22;;;;;;;13.93;10.90;;;;;;;;;;5017065;28;20972;-78
2021/09/22 09:46:48;;;;;;;13.80;11.13;;;;;;;;;;5034638;28;20762;-78
2021/09/22 09:49:16;;;;;;;12.73;11.40;;;;;;;;;;5034757;28;20405;-78
2021/09/22 09:51:49;;;;;;;12.77;10.40;;;;;;;;;;5033277;28;20491;-79
2021/09/22 09:54:22;;;;;;;12.90;9.87;;;;;;;;;;5034996;28;20444;-78
2021/09/22 09:56:50;;;;;;;14.77;11.67;;;;;;;;;;5034610;28;20413;-78
2021/09/22 09:59:18;;;;;;;12.83;10.70;;;;;;;;;;5034467;28;20476;-78
2021/09/22 10:01:46;;;;;;;13.67;11.47;;;;;;;;;;5033778;28;20420;-78
2021/09/22 10:04:14;;;;;;;11.67;10.47;;;;;;;;;;5034279;28;20404;-79
2021/09/22 10:06:42;;;;;;;12.53;10.80;;;;;;;;;;5034205;28;20393;-78
2021/09/22 10:09:08;;;;;;;15.87;11.40;;;;;;;;;;5034355;28;20427;-78
2021/09/22 10:11:35;;;;;;;15.33;11.73;;;;;;;;;;5033686;28;20435;-78
2021/09/22 10:14:02;;;;;;;15.03;12.10;;;;;;;;;;5034138;28;20767;-78
2021/09/22 10:16:29;;;;;;;12.57;11.27;;;;;;;;;;5034102;28;20767;-78
2021/09/22 10:18:56;;;;;;;14.80;11.93;;;;;;;;;;5033931;28;20562;-78
2021/09/22 10:21:22;;;;;;;16.53;12.10;;;;;;;;;;5033934;28;20547;-78
2021/09/22 10:23:52;;;;;;;12.17;10.20;;;;;;;;;;5033828;28;20461;-78
2021/09/22 10:26:18;;;;;;;14.97;10.30;;;;;;;;;;5033895;28;20420;-78
2021/09/22 10:28:45;;;;;;;14.13;10.53;;;;;;;;;;5016431;28;20405;-78
2021/09/22 10:31:23;;;;;;;15.40;10.70;;;;;;;;;;5033546;28;20413;-78
2021/09/22 10:33:49;;;;;;;12.60;9.70;;;;;;;;;;5033665;28;20451;-79
2021/09/22 10:36:16;;;;;;;12.40;10.43;;;;;;;;;;5033659;28;20456;-78
2021/09/22 10:38:45;;;;;;;13.40;10.57;;;;;;;;;;5033571;28;20496;-79
2021/09/22 10:41:23;;;;;;;15.00;10.30;;;;;;;;;;5033298;28;20421;-78
2021/09/22 10:43:49;;;;;;;10.97;8.93;;;;;;;;;;5033884;28;20878;-81
2021/09/22 10:46:19;;;;;;;12.10;10.30;;;;;;;;;;5033675;28;20470;-80
2021/09/22 10:48:51;;;;;;;11.87;10.33;;;;;;;;;;5033539;28;20416;-80
2021/09/22 10:51:29;;;;;;;13.97;11.30;;;;;;;;;;5033218;28;20421;-80
2021/09/22 10:54:06;;;;;;;19.80;10.70;;;;;;;;;;5033604;28;20412;-79
2021/09/22 10:56:32;;;;;;;13.90;11.67;;;;;;;;;;5033371;28;20413;-78
2021/09/22 10:58:59;;;;;;;14.90;11.27;;;;;;;;;;5033296;28;20468;-77
2021/09/22 11:01:45;;;;;;;16.47;10.33;;;;;;;;;;5033034;28;20488;-78
2021/09/22 11:04:13;;;;;;;12.10;10.63;;;;;;;;;;4998888;28;20421;-77
2021/09/22 11:06:48;;;;;;;12.87;10.67;;;;;;;;;;5033191;28;20420;-77
2021/09/22 11:09:24;;;;;;;13.87;10.20;;;;;;;;;;5015361;28;20421;-78
2021/09/22 11:11:54;;;;;;;14.60;10.47;;;;;;;;;;5015048;28;20460;-78
2021/09/22 11:14:39;;;;;;;15.40;11.50;;;;;;;;;;5033056;28;20470;-77
2021/09/22 11:17:18;;;;;;;15.30;10.80;;;;;;;;;;5033106;28;20413;-78
2021/09/22 11:19:47;;;;;;;12.97;10.90;;;;;;;;;;5033129;28;20905;-78
2021/09/22 11:22:14;;;;;;;13.83;11.27;;;;;;;;;;5032557;28;20556;-78
2021/09/22 11:24:41;;;;;;;13.53;12.13;;;;;;;;;;5032945;28;20405;-78
2021/09/22 11:27:11;;;;;;;14.40;12.37;;;;;;;;;;5015158;28;20393;-78
2021/09/22 11:29:40;;;;;;;16.07;13.37;;;;;;;;;;5033272;28;20401;-77
2021/09/22 11:32:29;;;;;;;14.77;11.77;;;;;;;;;;5032419;28;20832;-78
2021/09/22 11:34:55;;;;;;;13.40;12.00;;;;;;;;;;5033113;28;20761;-77
2021/09/22 11:37:22;;;;;;;15.37;13.07;;;;;;;;;;5033029;28;20484;-78
2021/09/22 11:39:48;;;;;;;13.83;10.53;;;;;;;;;;5033349;28;20409;-78
2021/09/22 11:42:15;;;;;;;18.07;12.07;;;;;;;;;;5032590;28;20435;-78
2021/09/22 11:44:42;;;;;;;16.13;11.23;;;;;;;;;;5032793;28;20412;-78
2021/09/22 11:47:09;;;;;;;14.10;11.10;;;;;;;;;;5033020;28;20480;-78
2021/09/22 11:49:42;;;;;;;15.07;13.00;;;;;;;;;;5032849;28;20416;-78
2021/09/22 11:52:13;;;;;;;12.60;11.03;;;;;;;;;;5032436;28;20431;-78
2021/09/22 11:54:43;;;;;;;14.27;12.50;;;;;;;;;;5032888;28;20424;-78
2021/09/22 11:57:14;;;;;;;15.90;11.77;;;;;;;;;;5032615;28;20416;-78
2021/09/22 11:59:43;;;;;;;12.47;11.17;;;;;;;;;;5032844;28;20417;-78
2021/09/22 12:02:09;;;;;;;12.40;10.43;;;;;;;;;;5014812;28;20441;-77
2021/09/22 12:04:37;;;;;;;14.67;10.97;;;;;;;;;;5032531;28;20405;-79
2021/09/22 12:07:04;;;;;;;13.50;10.47;;;;;;;;;;5032669;28;20409;-78
2021/09/22 12:09:41;;;;;;;12.43;10.70;;;;;;;;;;5032741;28;20487;-78
2021/09/22 12:12:13;;;;;;;15.80;10.17;;;;;;;;;;5032321;28;20486;-78
2021/09/22 12:14:39;;;;;;;13.77;10.10;;;;;;;;;;5015491;28;20420;-77
2021/09/22 12:17:09;;;;;;;12.30;10.93;;;;;;;;;;5036139;28;20857;-78
2021/09/22 12:19:35;;;;;;;13.47;9.97;;;;;;;;;;5036895;28;20748;-77
2021/09/22 12:22:01;;;;;;;13.30;10.87;;;;;;;;;;5035886;28;20961;-78
2021/09/22 12:24:29;;;;;;;13.33;10.60;;;;;;;;;;5036202;28;20794;-79
2021/09/22 12:26:55;;;;;;;13.60;10.47;;;;;;;;;;5036015;28;20412;-79
2021/09/22 12:29:22;;;;;;;11.20;9.50;;;;;;;;;;5036230;28;20478;-78
2021/09/22 12:31:48;;;;;;;15.30;10.53;;;;;;;;;;5018242;28;20511;-78
2021/09/22 12:34:18;;;;;;;12.67;9.60;;;;;;;;;;5036146;28;20502;-78
2021/09/22 12:36:47;;;;;;;13.70;10.87;;;;;;;;;;5036090;28;20409;-78
2021/09/22 12:39:14;;;;;;;15.90;11.10;;;;;;;;;;5036040;28;20464;-78
2021/09/22 12:41:56;;;;;;;10.97;9.30;;;;;;;;;;5035496;28;20432;-78
2021/09/22 12:44:22;;;;;;;12.30;9.17;;;;;;;;;;5035970;28;20743;-78
2021/09/22 12:46:48;;;;;;;16.17;10.73;;;;;;;;;;5036119;28;20405;-78
2021/09/22 12:49:15;;;;;;;11.10;8.03;;;;;;;;;;5035683;28;20444;-78
2021/09/22 12:51:54;;;;;;;11.70;8.90;;;;;;;;;;5035382;28;20479;-78
2021/09/22 12:54:21;;;;;;;9.33;7.90;;;;;;;;;;5035870;28;20437;-78
2021/09/22 12:56:47;;;;;;;11.03;8.50;;;;;;;;;;5018218;28;20451;-79
2021/09/22 12:59:17;;;;;;;15.77;10.30;;;;;;;;;;5017795;28;20464;-79
2021/09/22 13:01:48;;;;;;;13.47;10.17;;;;;;;;;;5035334;28;20794;-78
2021/09/22 13:04:21;;;;;;;12.33;10.07;;;;;;;;;;5035431;28;20491;-78
2021/09/22 13:06:54;;;;;;;10.97;9.47;;;;;;;;;;5017593;28;20416;-78
2021/09/22 13:09:37;;;;;;;12.00;9.37;;;;;;;;;;5035229;28;20448;-78
2021/09/22 13:12:03;;;;;;;11.03;9.20;;;;;;;;;;5034933;28;20829;-78
2021/09/22 13:14:40;;;;;;;10.93;9.27;;;;;;;;;;5035166;28;20405;-78
2021/09/22 13:17:06;;;;;;;11.53;10.00;;;;;;;;;;5017335;28;20424;-78
2021/09/22 13:19:33;;;;;;;11.80;9.63;;;;;;;;;;5017395;28;20424;-78
2021/09/22 13:22:01;;;;;;;14.40;9.63;;;;;;;;;;5034654;28;20443;-78
2021/09/22 13:24:27;;;;;;;10.40;8.13;;;;;;;;;;5034932;28;20835;-78
2021/09/22 13:26:55;;;;;;;11.80;8.83;;;;;;;;;;5015822;28;20483;-78
2021/09/22 13:29:21;;;;;;;14.50;9.70;;;;;;;;;;5034828;28;20842;-78
2021/09/22 13:31:48;;;;;;;11.73;8.27;;;;;;;;;;5034376;28;20448;-78
2021/09/22 13:34:14;;;;;;;10.80;9.70;;;;;;;;;;5035014;28;20781;-78
2021/09/22 13:36:41;;;;;;;10.60;8.20;;;;;;;;;;5035226;28;20475;-78
2021/09/22 13:39:09;;;;;;;10.90;7.67;;;;;;;;;;5016917;28;21055;-78
2021/09/22 13:41:35;;;;;;;8.63;5.80;;;;;;;;;;5034405;28;20808;-78
2021/09/22 13:44:04;;;;;;;10.80;7.80;;;;;;;;;;5034556;28;20409;-78
2021/09/22 13:46:30;;;;;;;11.37;7.67;;;;;;;;;;5034749;28;20467;-78
2021/09/22 13:48:56;;;;;;;10.63;8.10;;;;;;;;;;5034712;28;20415;-78
2021/09/22 13:51:22;;;;;;;10.53;6.23;;;;;;;;;;5034015;28;20507;-78
2021/09/22 13:53:48;;;;;;;8.17;6.27;;;;;;;;;;5034297;28;20452;-78
2021/09/22 13:56:15;;;;;;;9.07;6.90;;;;;;;;;;5034662;28;20425;-78
2021/09/22 13:58:41;;;;;;;7.60;6.80;;;;;;;;;;5034230;28;20467;-78
2021/09/22 14:01:08;;;;;;;7.00;5.57;;;;;;;;;;5034065;28;20455;-79
2021/09/22 14:03:34;;;;;;;10.57;6.20;;;;;;;;;;5034288;28;20412;-78
2021/09/22 14:06:01;;;;;;;8.63;6.33;;;;;;;;;;5016612;28;20769;-79
2021/09/22 14:08:28;;;;;;;7.80;6.30;;;;;;;;;;5034238;28;20412;-79
2021/09/22 14:10:54;;;;;;;10.40;5.40;;;;;;;;;;5034244;28;20479;-79
2021/09/22 14:13:21;;;;;;;9.17;6.30;;;;;;;;;;5033945;28;20429;-79
2021/09/22 14:15:48;;;;;;;7.40;6.60;;;;;;;;;;5033883;28;20435;-79
2021/09/22 14:18:15;;;;;;;7.17;6.47;;;;;;;;;;5033951;28;21041;-78
2021/09/22 14:20:43;;;;;;;10.73;8.97;;;;;;;;;;5034087;28;20452;-78
2021/09/22 14:23:11;;;;;;;9.90;7.50;;;;;;;;;;5033407;28;20443;-78
2021/09/22 14:25:38;;;;;;;11.03;8.30;;;;;;;;;;5033925;28;20401;-78